Time;durP1;ratioP1;P1;durP2;ratioP2;P2;SDS_P1;SDS_P2;PMS_P1;PMS_P2;Temp;Humidity;BMP_temperature;BMP_pressure;BME280_temperature;BME280_humidity;BME280_pressure;Samples;Min_cycle;Max_cycle;Signal;HPM_P1;HPM_P2
2022/05/04 00:03:39;;;;;;;4.12;2.60;;;19.30;61.30;;;;;;10903137;32;20030;-69
2022/05/04 00:10:05;;;;;;;3.65;2.85;;;19.20;61.40;;;;;;10904892;32;20046;-70
2022/05/04 00:16:08;;;;;;;3.30;2.25;;;19.10;61.50;;;;;;10904566;32;20050;-70
2022/05/04 00:22:10;;;;;;;3.65;2.83;;;19.10;61.90;;;;;;10904551;32;20024;-70
2022/05/04 00:28:12;;;;;;;9.07;3.62;;;19.00;62.10;;;;;;10904391;32;20035;-69
2022/05/04 00:34:14;;;;;;;3.78;2.70;;;19.00;62.20;;;;;;10904191;32;20100;-70
2022/05/04 00:40:37;;;;;;;5.47;3.22;;;18.90;62.40;;;;;;10914643;32;20050;-70
2022/05/04 00:46:39;;;;;;;4.65;3.30;;;18.90;62.80;;;;;;10916521;32;20046;-70
2022/05/04 00:52:45;;;;;;;5.80;3.78;;;18.90;62.80;;;;;;10916475;32;20022;-69
2022/05/04 00:58:56;;;;;;;8.13;3.65;;;18.80;63.10;;;;;;10902926;32;20019;-69
2022/05/04 01:04:58;;;;;;;5.10;3.95;;;18.90;63.10;;;;;;10916229;32;20027;-69
2022/05/04 01:11:00;;;;;;;4.47;3.05;;;18.90;63.30;;;;;;10916144;32;20046;-70
2022/05/04 01:17:03;;;;;;;4.65;3.80;;;18.80;63.20;;;;;;10652564;27;8263571;-69
2022/05/04 01:23:06;;;;;;;4.97;4.10;;;18.70;63.60;;;;;;10915884;32;20046;-69
2022/05/04 01:29:08;;;;;;;9.90;5.25;;;18.50;64.00;;;;;;10915712;32;20032;-70
2022/05/04 01:35:10;;;;;;;5.70;4.65;;;18.40;64.20;;;;;;10915858;32;20061;-70
2022/05/04 01:47:33;;;;;;;7.00;4.40;;;18.60;64.60;;;;;;10915225;32;20049;-70
2022/05/04 01:53:35;;;;;;;6.78;4.55;;;18.60;65.30;;;;;;10908927;32;20024;-69
2022/05/04 01:59:37;;;;;;;6.10;4.45;;;18.50;66.40;;;;;;10904927;32;20396;-69
2022/05/04 02:05:41;;;;;;;7.03;5.05;;;18.20;66.90;;;;;;10908902;32;20035;-70
2022/05/04 02:11:43;;;;;;;5.50;4.37;;;18.00;67.20;;;;;;10909015;32;20028;-70
2022/05/04 02:17:47;;;;;;;7.47;4.93;;;18.00;67.10;;;;;;10908516;32;20036;-69
2022/05/04 02:23:49;;;;;;;6.55;4.37;;;18.00;67.00;;;;;;10908541;32;20032;-70
2022/05/04 02:29:51;;;;;;;6.78;3.90;;;17.90;67.00;;;;;;10908203;32;20053;-70
2022/05/04 02:42:15;;;;;;;6.75;5.07;;;17.70;67.30;;;;;;10907912;32;20434;-69
2022/05/04 02:48:17;;;;;;;7.55;5.20;;;17.70;67.80;;;;;;10907653;32;20027;-70
2022/05/04 02:54:19;;;;;;;5.50;3.78;;;17.80;68.20;;;;;;10907290;32;20027;-70
2022/05/04 03:00:22;;;;;;;6.97;5.05;;;17.70;68.30;;;;;;10907006;32;20438;-69
2022/05/04 03:06:24;;;;;;;6.37;4.85;;;17.70;68.70;;;;;;10907088;32;20078;-70
2022/05/04 03:12:27;;;;;;;5.95;4.50;;;17.40;68.70;;;;;;10906782;32;20320;-70
2022/05/04 03:18:29;;;;;;;8.65;5.75;;;17.50;68.60;;;;;;10906686;32;20053;-70
2022/05/04 03:24:32;;;;;;;5.78;4.57;;;17.50;69.10;;;;;;10905418;32;20031;-70
2022/05/04 03:30:34;;;;;;;6.07;4.93;;;17.50;68.70;;;;;;10906040;32;20089;-70
2022/05/04 03:36:37;;;;;;;6.53;4.72;;;17.20;69.00;;;;;;10905815;32;20031;-70
2022/05/04 03:42:39;;;;;;;7.70;5.85;;;17.20;69.90;;;;;;10905765;32;20069;-70
2022/05/04 03:48:43;;;;;;;6.75;4.45;;;17.30;69.80;;;;;;10905622;32;20016;-70
2022/05/04 03:55:05;;;;;;;5.75;5.10;;;17.20;69.60;;;;;;10905226;32;20031;-70
2022/05/04 04:01:07;;;;;;;5.20;4.28;;;17.20;69.30;;;;;;10905144;32;20049;-70
2022/05/04 04:07:10;;;;;;;6.07;5.12;;;17.20;69.20;;;;;;10904882;32;20069;-70
2022/05/04 04:13:21;;;;;;;7.50;5.30;;;17.10;69.10;;;;;;10904244;32;20027;-69
2022/05/04 04:19:23;;;;;;;5.22;3.08;;;17.10;69.10;;;;;;10904455;32;20355;-70
2022/05/04 04:25:26;;;;;;;5.37;4.00;;;17.00;69.20;;;;;;10904554;32;20027;-69
2022/05/04 04:31:28;;;;;;;7.47;4.32;;;17.00;69.40;;;;;;10904233;32;20030;-69
2022/05/04 04:37:31;;;;;;;11.82;4.55;;;17.00;69.50;;;;;;10904149;32;20019;-70
2022/05/04 04:43:33;;;;;;;6.50;4.53;;;16.90;69.70;;;;;;10904149;32;20054;-70
2022/05/04 04:49:35;;;;;;;10.73;6.28;;;16.90;70.00;;;;;;10902583;32;20399;-69
2022/05/04 04:55:42;;;;;;;6.90;5.05;;;17.10;70.50;;;;;;10903834;32;20027;-70
2022/05/04 05:01:44;;;;;;;6.70;5.22;;;17.20;70.20;;;;;;10903944;32;20035;-69
2022/05/04 05:07:47;;;;;;;7.03;3.97;;;17.30;70.30;;;;;;10903726;32;20035;-69
2022/05/04 05:20:10;;;;;;;7.18;5.53;;;17.30;70.30;;;;;;10903533;32;20031;-69
2022/05/04 05:26:12;;;;;;;7.60;5.43;;;17.40;70.50;;;;;;10903900;32;20058;-69
2022/05/04 05:32:15;;;;;;;8.48;5.03;;;17.50;70.60;;;;;;10910488;32;20395;-70
2022/05/04 05:38:17;;;;;;;7.18;4.30;;;17.70;70.90;;;;;;10909550;32;20053;-70
2022/05/04 05:44:30;;;;;;;6.65;4.85;;;17.70;70.60;;;;;;10909801;32;20023;-69
2022/05/04 05:50:35;;;;;;;7.18;4.50;;;17.80;70.20;;;;;;10908134;32;20481;-69
2022/05/04 05:56:49;;;;;;;6.80;5.18;;;17.90;70.10;;;;;;10909481;32;20065;-70
2022/05/04 06:02:52;;;;;;;9.52;4.35;;;18.00;70.10;;;;;;10872361;32;20027;-70
2022/05/04 06:08:54;;;;;;;5.53;3.80;;;18.20;69.80;;;;;;10893323;32;20082;-70
2022/05/04 06:14:57;;;;;;;11.73;5.20;;;18.30;69.60;;;;;;10871092;32;20054;-68
2022/05/04 06:21:00;;;;;;;7.40;4.07;;;18.40;69.20;;;;;;10871207;32;20070;-72
2022/05/04 06:27:18;;;;;;;7.40;4.78;;;18.60;69.00;;;;;;10885469;32;20035;-70
2022/05/04 06:39:40;;;;;;;6.75;4.20;;;18.80;68.60;;;;;;10907656;32;20066;-70
2022/05/04 06:45:43;;;;;;;4.82;3.58;;;18.90;68.20;;;;;;10907642;32;20054;-70
2022/05/04 06:51:45;;;;;;;5.87;4.62;;;19.00;67.90;;;;;;10907637;32;20050;-70
2022/05/04 06:57:47;;;;;;;6.22;3.95;;;19.00;67.70;;;;;;10907063;32;20038;-69
2022/05/04 07:04:07;;;;;;;4.47;3.30;;;19.10;67.40;;;;;;10907131;32;20062;-69
2022/05/04 07:10:10;;;;;;;8.18;4.82;;;19.10;67.40;;;;;;10906988;32;20065;-69
2022/05/04 07:16:12;;;;;;;5.68;3.75;;;19.20;67.20;;;;;;10906462;32;20054;-70
2022/05/04 07:22:14;;;;;;;6.03;4.25;;;19.30;66.80;;;;;;10906431;32;20062;-69
2022/05/04 07:28:16;;;;;;;5.95;4.25;;;19.60;66.60;;;;;;10905855;32;20057;-70
2022/05/04 07:34:19;;;;;;;4.28;3.10;;;19.70;66.00;;;;;;10902591;32;20078;-69
2022/05/04 07:46:43;;;;;;;5.97;4.45;;;19.80;65.10;;;;;;10904808;32;20049;-69
2022/05/04 07:52:47;;;;;;;6.15;4.30;;;19.80;65.10;;;;;;10891971;32;20042;-69
2022/05/04 07:58:50;;;;;;;5.87;4.37;;;19.80;64.80;;;;;;10905148;32;20061;-69
2022/05/04 08:04:53;;;;;;;8.85;4.43;;;19.80;64.70;;;;;;10904781;32;20054;-69
2022/05/04 08:10:56;;;;;;;5.60;3.97;;;19.90;64.60;;;;;;10902795;32;20054;-69
2022/05/04 08:16:59;;;;;;;4.20;2.47;;;20.00;64.40;;;;;;10904107;32;20027;-69
2022/05/04 08:23:02;;;;;;;7.00;4.90;;;20.20;63.80;;;;;;10903473;32;20053;-69
2022/05/04 08:29:04;;;;;;;9.13;6.22;;;20.30;63.50;;;;;;10904373;32;20042;-70
2022/05/04 08:35:06;;;;;;;10.65;6.62;;;20.50;63.30;;;;;;10903958;32;20042;-69
2022/05/04 08:41:09;;;;;;;8.65;6.03;;;20.60;63.00;;;;;;10903857;32;20016;-70
2022/05/04 08:47:14;;;;;;;7.90;6.00;;;20.70;62.80;;;;;;10900000;32;20351;-70
2022/05/04 08:53:16;;;;;;;11.18;9.10;;;20.90;61.70;;;;;;10903757;32;20422;-71
2022/05/04 08:59:18;;;;;;;10.27;6.00;;;21.10;60.90;;;;;;10902469;32;20309;-70
2022/05/04 09:05:26;;;;;;;12.40;7.78;;;21.30;60.60;;;;;;10911319;32;20031;-70
2022/05/04 09:11:29;;;;;;;7.40;5.13;;;21.40;59.60;;;;;;10897562;32;20046;-70
2022/05/04 09:17:31;;;;;;;13.50;7.60;;;21.40;59.50;;;;;;10938830;27;20061;-70
2022/05/04 09:23:33;;;;;;;12.37;7.43;;;21.50;59.40;;;;;;10944181;32;20352;-70
2022/05/04 09:29:42;;;;;;;12.13;8.27;;;21.60;59.40;;;;;;10934323;32;20028;-71
2022/05/04 09:35:46;;;;;;;14.38;6.50;;;21.80;58.60;;;;;;10933649;32;20062;-70
2022/05/04 09:48:35;;;;;;;10.88;6.60;;;22.00;57.70;;;;;;10942023;32;20058;-69
2022/05/04 09:54:38;;;;;;;9.27;7.00;;;22.30;57.10;;;;;;10946829;32;20035;-70
2022/05/04 10:00:41;;;;;;;9.68;6.57;;;22.40;56.10;;;;;;10933534;32;20061;-69
2022/05/04 10:06:44;;;;;;;10.52;3.67;;;22.60;55.70;;;;;;10946762;32;20023;-69
2022/05/04 10:12:47;;;;;;;4.32;3.05;;;22.70;55.20;;;;;;10945886;32;20155;-69
2022/05/04 10:18:50;;;;;;;14.15;4.87;;;22.90;54.30;;;;;;10946321;32;20050;-70
2022/05/04 10:24:56;;;;;;;7.65;3.83;;;23.00;53.10;;;;;;10946127;32;20030;-69
2022/05/04 10:31:00;;;;;;;2.67;2.03;;;23.00;52.30;;;;;;10946083;32;20049;-69
2022/05/04 10:37:03;;;;;;;3.53;2.50;;;23.30;50.70;;;;;;10931281;32;20418;-69
2022/05/04 10:43:33;;;;;;;6.00;3.50;;;23.40;50.30;;;;;;10929305;32;20395;-70
2022/05/04 10:49:39;;;;;;;6.45;4.10;;;23.50;49.40;;;;;;10904379;32;20066;-69
2022/05/04 11:03:04;;;;;;;8.25;4.60;;;23.80;48.70;;;;;;10792978;32;20040;-73
2022/05/04 11:09:07;;;;;;;4.80;2.87;;;24.00;47.90;;;;;;10786146;32;20456;-70
2022/05/04 11:15:10;;;;;;;6.35;4.15;;;24.40;47.70;;;;;;10768029;33;20048;-69
2022/05/04 11:21:13;;;;;;;4.50;3.03;;;24.70;46.70;;;;;;10749186;33;20071;-69
2022/05/04 11:27:16;;;;;;;3.58;2.62;;;24.90;46.30;;;;;;10755089;33;20063;-70
2022/05/04 11:33:19;;;;;;;8.50;2.28;;;25.20;45.40;;;;;;10755199;33;20020;-69
2022/05/04 11:39:26;;;;;;;7.30;4.72;;;25.40;44.40;;;;;;10883282;32;20046;-70
2022/05/04 11:45:28;;;;;;;4.37;2.67;;;25.50;43.50;;;;;;10905888;32;20058;-69
2022/05/04 11:51:30;;;;;;;4.87;2.58;;;25.60;43.50;;;;;;10905078;32;20328;-69
2022/05/04 11:57:42;;;;;;;3.80;3.05;;;25.70;42.20;;;;;;10905409;32;20400;-69
2022/05/04 12:03:45;;;;;;;6.12;4.10;;;25.70;42.70;;;;;;10917825;32;20061;-70
2022/05/04 12:09:47;;;;;;;9.30;4.82;;;25.90;42.50;;;;;;10942539;32;20057;-70
2022/05/04 12:15:52;;;;;;;7.03;3.95;;;26.10;42.50;;;;;;10942314;32;20489;-69
2022/05/04 12:21:55;;;;;;;6.00;3.85;;;25.90;42.80;;;;;;10942344;32;20050;-71
2022/05/04 12:27:57;;;;;;;5.90;4.10;;;25.90;43.00;;;;;;10938839;32;20078;-70
2022/05/04 12:34:00;;;;;;;5.68;3.95;;;25.90;43.40;;;;;;10903967;32;20331;-71
2022/05/04 12:40:04;;;;;;;7.80;3.72;;;25.80;44.50;;;;;;10904974;32;20027;-69
2022/05/04 12:46:29;;;;;;;6.60;4.78;;;25.40;45.00;;;;;;10924956;32;20059;-70
2022/05/04 12:52:31;;;;;;;15.23;7.82;;;25.00;45.30;;;;;;10940784;32;20526;-69
2022/05/04 12:58:35;;;;;;;7.15;4.80;;;24.80;45.80;;;;;;10928292;32;20023;-70
2022/05/04 13:04:37;;;;;;;5.57;3.90;;;25.00;45.40;;;;;;10941468;32;20031;-70
2022/05/04 13:10:40;;;;;;;8.80;5.03;;;25.30;44.90;;;;;;10940915;32;20031;-70
2022/05/04 13:16:57;;;;;;;5.25;3.22;;;25.30;45.10;;;;;;10937017;32;20031;-70
2022/05/04 13:23:00;;;;;;;8.33;3.87;;;25.40;44.70;;;;;;10941289;32;20030;-71
2022/05/04 13:29:07;;;;;;;5.22;3.35;;;25.60;43.80;;;;;;10941019;32;20011;-70
2022/05/04 13:35:09;;;;;;;9.50;3.53;;;25.60;43.50;;;;;;10940009;32;20053;-70
2022/05/04 13:41:11;;;;;;;3.85;2.72;;;25.60;43.80;;;;;;10919432;32;20035;-71
2022/05/04 13:47:13;;;;;;;4.57;2.78;;;25.40;43.90;;;;;;10907599;32;20069;-70
2022/05/04 13:53:16;;;;;;;4.97;3.53;;;25.30;43.50;;;;;;10925855;32;20066;-70
2022/05/04 13:59:18;;;;;;;7.68;4.65;;;25.30;44.10;;;;;;10911415;32;20055;-71
2022/05/04 14:05:20;;;;;;;4.62;3.20;;;25.40;45.10;;;;;;10909605;32;20053;-69
2022/05/04 14:11:22;;;;;;;3.33;2.28;;;25.40;45.40;;;;;;10932761;32;20073;-70
2022/05/04 14:17:24;;;;;;;6.65;4.25;;;25.60;44.50;;;;;;10946628;32;20027;-69
2022/05/04 14:23:26;;;;;;;7.45;3.75;;;25.60;45.80;;;;;;10936953;32;20059;-69
2022/05/04 14:29:28;;;;;;;4.35;2.70;;;25.50;45.50;;;;;;10909389;32;20321;-69
2022/05/04 14:35:46;;;;;;;5.22;3.33;;;25.50;46.00;;;;;;10908550;32;20050;-69
2022/05/04 14:41:48;;;;;;;4.47;2.28;;;25.60;45.50;;;;;;10907336;32;20023;-69
2022/05/04 14:47:51;;;;;;;3.03;2.15;;;25.60;45.00;;;;;;10910174;32;20476;-69
2022/05/04 14:53:53;;;;;;;3.10;2.25;;;25.30;45.00;;;;;;10910402;32;20367;-69
2022/05/04 14:59:56;;;;;;;6.00;2.80;;;25.30;46.00;;;;;;10921491;32;20340;-69
2022/05/04 15:05:58;;;;;;;4.50;2.95;;;25.20;45.80;;;;;;10941667;32;20461;-69
2022/05/04 15:12:01;;;;;;;4.43;3.17;;;25.00;46.60;;;;;;10944013;32;20026;-69
2022/05/04 15:18:03;;;;;;;5.32;3.00;;;24.90;47.20;;;;;;10940628;32;20399;-69
2022/05/04 15:24:05;;;;;;;2.97;2.03;;;24.70;46.60;;;;;;10944241;32;20058;-70
2022/05/04 15:30:35;;;;;;;11.30;2.85;;;24.50;47.00;;;;;;10944156;32;20023;-69
2022/05/04 15:36:37;;;;;;;3.85;2.30;;;24.40;46.70;;;;;;10943600;32;20058;-69
2022/05/04 15:42:40;;;;;;;7.00;2.55;;;24.30;46.50;;;;;;10935880;32;20363;-69
2022/05/04 15:48:42;;;;;;;3.70;2.12;;;24.20;47.40;;;;;;10905633;32;20027;-69
2022/05/04 15:55:10;;;;;;;7.60;2.83;;;24.10;47.20;;;;;;10905398;32;20061;-69
2022/05/04 16:01:27;;;;;;;2.90;1.90;;;23.90;47.50;;;;;;10904510;32;20027;-69
2022/05/04 16:07:31;;;;;;;6.50;2.70;;;23.90;47.90;;;;;;10904669;32;20380;-69
2022/05/04 16:13:33;;;;;;;9.25;2.58;;;23.80;48.50;;;;;;10910140;32;20031;-69
2022/05/04 16:26:18;;;;;;;3.67;2.25;;;23.70;48.30;;;;;;10931499;32;20027;-68
2022/05/04 16:32:21;;;;;;;3.72;2.70;;;23.60;48.20;;;;;;10910237;32;20039;-69
2022/05/04 16:38:24;;;;;;;5.12;2.90;;;23.50;48.50;;;;;;10921967;32;20057;-68
2022/05/04 16:44:26;;;;;;;2.65;2.08;;;23.40;48.80;;;;;;10916527;32;20030;-68
2022/05/04 16:50:29;;;;;;;2.65;2.00;;;23.40;49.00;;;;;;10910801;32;20074;-69
2022/05/04 16:56:31;;;;;;;3.37;2.37;;;23.40;49.00;;;;;;10937857;32;20437;-69
2022/05/04 17:02:34;;;;;;;7.20;2.97;;;23.30;49.10;;;;;;10941396;32;20031;-69
2022/05/04 17:08:37;;;;;;;3.72;2.03;;;23.30;49.40;;;;;;10905814;32;20053;-69
2022/05/04 17:14:41;;;;;;;3.42;2.30;;;23.30;49.60;;;;;;10914247;27;20036;-69
2022/05/04 17:20:45;;;;;;;4.28;2.40;;;23.20;49.80;;;;;;10944063;32;20403;-69
2022/05/04 17:27:08;;;;;;;5.57;1.80;;;23.10;49.60;;;;;;10934954;32;20050;-69
2022/05/04 17:39:32;;;;;;;2.65;1.67;;;23.00;49.50;;;;;;10947894;32;20050;-69
2022/05/04 17:45:34;;;;;;;2.03;1.60;;;23.00;49.70;;;;;;10947317;32;20019;-69
2022/05/04 17:51:37;;;;;;;3.80;2.20;;;22.90;49.90;;;;;;10947410;32;20058;-69
2022/05/04 17:57:40;;;;;;;4.37;1.98;;;22.80;50.20;;;;;;10946872;32;20407;-69
2022/05/04 18:03:43;;;;;;;2.75;1.20;;;22.80;50.30;;;;;;10946868;32;20058;-69
2022/05/04 18:09:45;;;;;;;1.70;1.25;;;22.70;50.40;;;;;;10946853;32;20015;-69
2022/05/04 18:15:47;;;;;;;2.83;1.67;;;22.60;50.40;;;;;;10946641;32;20388;-69
2022/05/04 18:21:49;;;;;;;4.10;1.62;;;22.60;50.90;;;;;;10946639;32;20046;-69
2022/05/04 18:27:51;;;;;;;6.18;2.17;;;22.50;51.20;;;;;;10946376;32;20046;-69
2022/05/04 18:33:53;;;;;;;3.10;2.08;;;22.30;51.30;;;;;;10945323;32;20065;-69
2022/05/04 18:40:10;;;;;;;4.18;1.67;;;22.30;51.70;;;;;;10945770;32;20031;-69
2022/05/04 18:46:13;;;;;;;2.72;2.10;;;22.30;51.80;;;;;;10945699;32;20027;-69
2022/05/04 18:52:16;;;;;;;4.72;2.70;;;22.20;52.20;;;;;;10945511;32;20030;-69
2022/05/04 18:58:30;;;;;;;3.72;2.28;;;22.20;52.60;;;;;;10945130;32;20054;-69
2022/05/04 19:04:34;;;;;;;2.97;2.05;;;22.10;53.00;;;;;;10945104;32;20392;-69
2022/05/04 19:10:37;;;;;;;3.47;2.35;;;22.00;53.30;;;;;;10944798;32;20054;-69
2022/05/04 19:16:44;;;;;;;2.28;1.62;;;22.00;53.80;;;;;;10944362;32;20108;-69
2022/05/04 19:23:12;;;;;;;2.87;1.83;;;21.90;53.80;;;;;;10944162;32;20049;-69
2022/05/04 19:29:14;;;;;;;3.30;2.30;;;21.80;54.00;;;;;;10943822;32;20050;-69
2022/05/04 19:35:17;;;;;;;5.72;3.80;;;21.80;54.30;;;;;;10943386;32;20023;-69
2022/05/04 19:41:19;;;;;;;4.70;1.83;;;21.70;56.40;;;;;;10942937;32;20049;-69
2022/05/04 19:47:22;;;;;;;4.47;2.87;;;21.50;57.20;;;;;;10942934;32;20027;-69
2022/05/04 19:53:38;;;;;;;3.90;2.53;;;21.40;57.20;;;;;;10943223;32;20042;-69
2022/05/04 19:59:40;;;;;;;4.28;2.95;;;21.40;57.00;;;;;;10943015;32;20050;-69
2022/05/04 20:05:44;;;;;;;4.20;3.00;;;21.30;57.30;;;;;;10940576;32;20406;-69
2022/05/04 20:11:46;;;;;;;3.55;2.15;;;21.20;59.00;;;;;;10942641;32;20088;-69
2022/05/04 20:18:15;;;;;;;2.83;2.12;;;21.20;59.30;;;;;;10942349;32;20049;-69
2022/05/04 20:24:17;;;;;;;4.18;2.40;;;21.20;58.90;;;;;;10942311;32;20067;-69
2022/05/04 20:30:21;;;;;;;6.28;2.65;;;21.20;58.80;;;;;;10942194;32;20058;-69
2022/05/04 20:36:23;;;;;;;6.10;2.95;;;21.10;59.50;;;;;;10941838;32;20057;-69
2022/05/04 20:42:35;;;;;;;3.58;2.53;;;21.00;60.00;;;;;;10941915;32;20104;-69
2022/05/04 20:48:37;;;;;;;4.60;2.78;;;20.90;59.80;;;;;;10941744;32;20059;-69
2022/05/04 20:54:41;;;;;;;5.03;2.90;;;20.90;59.90;;;;;;10943760;32;20077;-69
2022/05/04 21:00:44;;;;;;;2.60;1.80;;;20.80;60.50;;;;;;10948201;32;20057;-70
2022/05/04 21:06:46;;;;;;;4.47;2.55;;;20.80;60.70;;;;;;10945045;32;20407;-70
2022/05/04 21:12:48;;;;;;;3.35;2.22;;;20.70;60.60;;;;;;10948915;32;20058;-69
2022/05/04 21:18:52;;;;;;;4.12;2.78;;;20.70;60.60;;;;;;10948614;32;20019;-69
2022/05/04 21:24:54;;;;;;;4.62;3.05;;;20.70;61.30;;;;;;10935189;32;20066;-69
2022/05/04 21:30:56;;;;;;;3.45;2.70;;;20.60;61.10;;;;;;10948242;32;20057;-69
2022/05/04 21:36:58;;;;;;;6.30;3.85;;;20.60;61.30;;;;;;10948058;32;20348;-70
2022/05/04 21:43:01;;;;;;;5.75;4.25;;;20.60;61.40;;;;;;10944664;32;20027;-69
2022/05/04 21:49:03;;;;;;;8.48;3.70;;;20.50;61.60;;;;;;10946807;32;20042;-69
2022/05/04 21:55:07;;;;;;;4.05;2.30;;;20.40;62.70;;;;;;10947533;32;20038;-70
2022/05/04 22:01:09;;;;;;;6.85;3.58;;;20.30;62.80;;;;;;10947079;32;20057;-69
2022/05/04 22:07:11;;;;;;;4.28;2.95;;;20.20;62.80;;;;;;10945936;32;20394;-69
2022/05/04 22:19:34;;;;;;;6.32;3.60;;;20.20;63.90;;;;;;10946696;32;20031;-69
2022/05/04 22:25:36;;;;;;;4.70;2.85;;;20.20;63.50;;;;;;10944271;32;20023;-70
2022/05/04 22:31:37;;;;;;;4.68;3.33;;;20.10;63.60;;;;;;10946235;32;20050;-69
2022/05/04 22:37:40;;;;;;;5.20;3.95;;;20.00;63.70;;;;;;10945967;32;20038;-70
2022/05/04 22:43:42;;;;;;;7.32;4.35;;;19.80;63.70;;;;;;10945899;32;20058;-70
2022/05/04 22:49:45;;;;;;;4.47;3.42;;;19.80;63.80;;;;;;10945708;32;20015;-70
2022/05/04 22:55:47;;;;;;;5.40;3.80;;;19.90;64.10;;;;;;10945387;32;20078;-70
2022/05/04 23:01:49;;;;;;;5.85;3.58;;;19.80;65.10;;;;;;10945127;32;20015;-70
2022/05/04 23:07:52;;;;;;;6.05;3.87;;;19.80;64.90;;;;;;10944996;32;20023;-70
2022/05/04 23:13:54;;;;;;;6.03;4.57;;;19.70;65.00;;;;;;10944809;32;20347;-69
2022/05/04 23:20:01;;;;;;;6.87;4.30;;;19.70;65.40;;;;;;10944142;32;20026;-69
2022/05/04 23:26:03;;;;;;;7.62;6.00;;;19.80;65.20;;;;;;10944340;32;20469;-69
2022/05/04 23:32:06;;;;;;;5.93;4.68;;;19.70;65.70;;;;;;10944100;32;20045;-69
2022/05/04 23:38:08;;;;;;;8.40;6.22;;;19.70;65.40;;;;;;10943800;32;20064;-69
2022/05/04 23:44:10;;;;;;;6.62;5.82;;;19.70;65.20;;;;;;10943623;32;20054;-69
2022/05/04 23:50:31;;;;;;;6.62;4.82;;;19.70;65.40;;;;;;10943564;32;20042;-70
2022/05/04 23:56:34;;;;;;;11.00;6.65;;;19.60;66.00;;;;;;10943168;32;20031;-69
